Time;durP1;ratioP1;P1;durP2;ratioP2;P2;SDS_P1;SDS_P2;PMS_P1;PMS_P2;Temp;Humidity;BMP_temperature;BMP_pressure;BME280_temperature;BME280_humidity;BME280_pressure;Samples;Min_cycle;Max_cycle;Signal;HPM_P1;HPM_P2
2020/12/17 00:01:34;;;;;;;29.90;17.00;;;;;;;2.35;91.06;99932.84;1757560;82;21346;-60
2020/12/17 00:04:02;;;;;;;33.67;16.23;;;;;;;2.38;91.25;99945.35;1715358;82;21712;-60
2020/12/17 00:06:32;;;;;;;34.70;15.95;;;;;;;2.45;91.22;99950.83;1714673;84;21578;-60
2020/12/17 00:09:00;;;;;;;27.60;15.53;;;;;;;2.50;91.16;99945.61;1715428;84;21196;-60
2020/12/17 00:11:27;;;;;;;32.48;16.27;;;;;;;2.53;91.01;99953.02;1715562;84;21290;-59
2020/12/17 00:13:55;;;;;;;26.70;14.00;;;;;;;2.56;90.99;99954.47;1715500;84;21307;-60
2020/12/17 00:16:23;;;;;;;25.55;14.23;;;;;;;2.56;90.84;99957.42;1715717;84;21176;-59
2020/12/17 00:18:52;;;;;;;23.47;13.32;;;;;;;2.55;90.82;99957.82;1715451;83;21243;-59
2020/12/17 00:21:20;;;;;;;26.27;14.10;;;;;;;2.55;90.87;99952.73;1715384;84;21167;-59
2020/12/17 00:23:48;;;;;;;29.27;14.38;;;;;;;2.57;90.87;99961.72;1715376;84;21184;-60
2020/12/17 00:26:17;;;;;;;28.05;15.05;;;;;;;2.58;90.83;99963.09;1715587;83;21301;-60
2020/12/17 00:28:45;;;;;;;31.77;14.43;;;;;;;2.56;90.85;99962.52;1715406;84;21196;-59
2020/12/17 00:31:17;;;;;;;27.07;14.35;;;;;;;2.57;90.87;99958.80;1715764;84;21175;-60
2020/12/17 00:33:46;;;;;;;25.95;13.60;;;;;;;2.57;90.88;99961.72;1715539;83;21168;-60
2020/12/17 00:36:18;;;;;;;23.35;12.75;;;;;;;2.58;90.82;99963.49;1715441;84;21136;-59
2020/12/17 00:38:47;;;;;;;22.82;13.03;;;;;;;2.57;90.81;99962.98;1715554;84;21329;-59
2020/12/17 00:41:17;;;;;;;25.37;13.62;;;;;;;2.57;90.88;99964.27;1715659;84;21176;-60
2020/12/17 00:43:46;;;;;;;24.30;13.43;;;;;;;2.56;90.73;99957.42;1715561;84;21329;-60
2020/12/17 00:46:15;;;;;;;29.05;15.18;;;;;;;2.54;90.88;99961.14;1715616;83;21309;-57
2020/12/17 00:48:43;;;;;;;30.12;14.07;;;;;;;2.55;90.76;99951.45;1715844;84;21602;-59
2020/12/17 00:51:11;;;;;;;26.57;14.55;;;;;;;2.52;90.79;99956.75;1715590;83;21144;-60
2020/12/17 00:53:39;;;;;;;30.35;14.38;;;;;;;2.52;90.92;99954.20;1715642;84;21229;-60
2020/12/17 00:56:06;;;;;;;27.60;13.95;;;;;;;2.55;90.98;99942.53;1715846;84;21156;-60
2020/12/17 00:58:34;;;;;;;26.17;14.30;;;;;;;2.61;90.86;99937.78;1715556;84;21180;-59
2020/12/17 01:01:07;;;;;;;26.10;13.95;;;;;;;2.64;90.67;99930.70;1715606;83;21314;-60
2020/12/17 01:03:36;;;;;;;24.50;13.32;;;;;;;2.63;90.58;99928.09;1722656;83;21290;-59
2020/12/17 01:06:08;;;;;;;29.07;15.10;;;;;;;2.59;90.57;99927.02;1727179;83;21266;-60
2020/12/17 01:08:36;;;;;;;28.85;14.78;;;;;;;2.55;90.65;99930.20;1727060;83;21294;-59
2020/12/17 01:11:04;;;;;;;27.42;14.20;;;;;;;2.53;90.91;99931.37;1726985;83;21144;-60
2020/12/17 01:13:31;;;;;;;24.77;14.35;;;;;;;2.56;90.90;99927.72;1727025;83;21135;-60
2020/12/17 01:15:59;;;;;;;25.60;14.00;;;;;;;2.60;90.82;99919.88;1727218;83;22173;-59
2020/12/17 01:18:28;;;;;;;25.27;13.28;;;;;;;2.63;90.77;99919.17;1727111;83;21277;-57
2020/12/17 01:20:55;;;;;;;23.73;14.47;;;;;;;2.63;90.67;99917.91;1726906;83;21144;-60
2020/12/17 01:23:23;;;;;;;23.65;13.78;;;;;;;2.59;90.64;99911.73;1727161;83;21270;-59
2020/12/17 01:25:50;;;;;;;24.70;13.50;;;;;;;2.60;90.67;99913.51;1726793;83;21140;-60
2020/12/17 01:28:18;;;;;;;26.80;13.55;;;;;;;2.58;90.70;99913.41;1726851;83;21116;-60
2020/12/17 01:30:46;;;;;;;25.70;13.05;;;;;;;2.56;90.73;99908.61;1726835;83;21144;-60
2020/12/17 01:33:14;;;;;;;26.65;13.40;;;;;;;2.57;90.80;99918.39;1726979;83;21269;-59
2020/12/17 01:35:41;;;;;;;26.25;13.03;;;;;;;2.57;90.70;99928.22;1727116;83;21535;-59
2020/12/17 01:38:09;;;;;;;23.12;12.10;;;;;;;2.57;90.69;99926.04;1726981;83;21148;-59
2020/12/17 01:40:36;;;;;;;22.10;11.88;;;;;;;2.57;90.74;99929.86;1727191;83;21285;-59
2020/12/17 01:43:04;;;;;;;25.00;12.15;;;;;;;2.57;90.77;99929.86;1727078;83;21148;-59
2020/12/17 01:45:31;;;;;;;22.90;11.93;;;;;;;2.56;90.76;99934.49;1726923;83;21286;-59
2020/12/17 01:48:00;;;;;;;23.30;11.90;;;;;;;2.54;90.88;99925.47;1726798;83;21144;-59
2020/12/17 01:50:28;;;;;;;20.60;11.53;;;;;;;2.55;90.90;99934.02;1726799;83;21322;-60
2020/12/17 01:52:57;;;;;;;21.52;11.43;;;;;;;2.54;90.89;99940.75;1727034;83;21297;-60
2020/12/17 01:55:27;;;;;;;27.40;12.75;;;;;;;2.54;90.85;99947.53;1726905;83;21337;-58
2020/12/17 01:57:57;;;;;;;25.57;13.93;;;;;;;2.53;90.89;99947.06;1727028;83;21144;-59
2020/12/17 02:00:25;;;;;;;26.37;12.60;;;;;;;2.52;91.00;99952.55;1726905;83;21104;-59
2020/12/17 02:02:53;;;;;;;21.68;12.07;;;;;;;2.51;90.89;99952.45;1724870;83;21314;-59
2020/12/17 02:05:21;;;;;;;23.12;11.85;;;;;;;2.43;91.03;99939.66;1715571;84;21291;-60
2020/12/17 02:07:49;;;;;;;27.40;12.30;;;;;;;2.46;91.35;99929.65;1715706;84;21116;-60
2020/12/17 02:10:18;;;;;;;25.02;14.07;;;;;;;2.52;91.24;99932.54;1715727;84;21145;-60
2020/12/17 02:12:48;;;;;;;20.62;12.03;;;;;;;2.59;91.28;99925.34;1715516;84;21144;-59
2020/12/17 02:15:18;;;;;;;26.27;12.95;;;;;;;2.65;91.03;99926.12;1715573;84;21298;-60
2020/12/17 02:17:49;;;;;;;24.25;12.63;;;;;;;2.67;90.90;99925.81;1715687;84;21169;-60
2020/12/17 02:20:17;;;;;;;;;;;;;;;2.62;90.83;99922.13;1718214;84;21360;-61
2020/12/17 02:22:45;;;;;;;22.90;12.78;;;;;;;2.59;90.90;99932.11;1715561;84;20223;-58
2020/12/17 02:25:15;;;;;;;27.00;12.82;;;;;;;2.55;91.01;99929.80;1715737;83;21140;-58
2020/12/17 02:27:45;;;;;;;25.23;12.70;;;;;;;2.52;91.12;99935.09;1715499;84;21168;-59
2020/12/17 02:30:13;;;;;;;21.17;11.30;;;;;;;2.53;91.19;99935.59;1715484;83;21157;-59
2020/12/17 02:32:42;;;;;;;20.15;11.70;;;;;;;2.55;91.29;99936.56;1715737;84;21164;-60
2020/12/17 02:35:10;;;;;;;20.55;12.10;;;;;;;2.59;91.33;99943.18;1715683;84;21220;-59
2020/12/17 02:37:39;;;;;;;25.12;12.47;;;;;;;2.58;91.23;99948.20;1714364;84;21720;-59
2020/12/17 02:40:07;;;;;;;24.10;12.85;;;;;;;2.57;91.25;99956.63;1715670;84;21145;-59
2020/12/17 02:42:35;;;;;;;23.07;12.95;;;;;;;2.54;91.30;99942.44;1715452;84;21136;-59
2020/12/17 02:45:03;;;;;;;20.32;11.93;;;;;;;2.54;91.43;99953.90;1715493;84;21170;-59
2020/12/17 02:47:31;;;;;;;24.25;11.90;;;;;;;2.58;91.59;99948.20;1715577;84;21156;-57
2020/12/17 02:49:58;;;;;;;24.05;12.73;;;;;;;2.62;91.44;99956.53;1715441;84;21280;-60
2020/12/17 02:52:26;;;;;;;21.40;12.03;;;;;;;2.63;91.52;99959.55;1715470;84;21148;-59
2020/12/17 02:54:54;;;;;;;23.85;12.20;;;;;;;2.65;91.63;99952.88;1715625;84;21120;-59
2020/12/17 02:57:22;;;;;;;19.20;10.98;;;;;;;2.66;91.53;99950.80;1715777;84;21230;-59
2020/12/17 02:59:49;;;;;;;21.27;12.40;;;;;;;2.68;91.61;99953.05;1715505;84;21141;-59
2020/12/17 03:02:17;;;;;;;24.15;11.95;;;;;;;2.70;91.55;99948.92;1715620;84;21172;-59
2020/12/17 03:04:45;;;;;;;21.82;11.63;;;;;;;2.69;91.51;99954.79;1715406;83;21147;-59
2020/12/17 03:07:12;;;;;;;22.37;11.53;;;;;;;2.71;91.45;99955.77;1715431;84;21140;-60
2020/12/17 03:09:42;;;;;;;26.68;11.88;;;;;;;2.75;91.50;99958.12;1715378;82;21132;-59
2020/12/17 03:12:10;;;;;;;24.80;11.57;;;;;;;2.77;91.31;99957.41;1715641;84;21157;-60
2020/12/17 03:14:37;;;;;;;22.98;11.73;;;;;;;2.78;91.46;99962.11;1715439;84;21478;-61
2020/12/17 03:17:05;;;;;;;23.02;10.80;;;;;;;2.78;91.32;99956.61;1715376;84;21271;-60
2020/12/17 03:19:33;;;;;;;24.70;11.68;;;;;;;2.80;91.42;99956.31;1715444;84;21148;-60
2020/12/17 03:22:00;;;;;;;23.50;11.50;;;;;;;2.86;91.48;99957.45;1715562;83;21275;-59
2020/12/17 03:24:28;;;;;;;21.87;11.20;;;;;;;2.92;91.32;99961.21;1715442;84;21177;-59
2020/12/17 03:26:56;;;;;;;24.32;12.40;;;;;;;2.97;91.35;99964.03;1715507;84;21274;-60
2020/12/17 03:29:23;;;;;;;22.22;11.65;;;;;;;2.97;91.21;99971.68;1691324;84;21285;-57
2020/12/17 03:31:51;;;;;;;18.65;10.88;;;;;;;2.96;91.18;99969.94;1715478;84;21203;-59
2020/12/17 03:34:19;;;;;;;21.50;11.30;;;;;;;2.96;91.17;99980.14;1715522;84;21263;-58
2020/12/17 03:36:47;;;;;;;24.02;13.13;;;;;;;2.98;91.14;99979.43;1715509;84;21376;-58
2020/12/17 03:39:15;;;;;;;26.50;12.98;;;;;;;2.97;91.09;99984.03;1715603;84;21157;-59
2020/12/17 03:41:43;;;;;;;25.80;12.45;;;;;;;2.98;91.08;99979.83;1715531;84;21108;-60
2020/12/17 03:44:11;;;;;;;21.37;13.03;;;;;;;3.03;90.98;99991.17;1715519;84;21148;-59
2020/12/17 03:46:39;;;;;;;25.20;13.03;;;;;;;3.07;90.95;99992.22;1715597;84;21141;-59
2020/12/17 03:49:07;;;;;;;19.73;12.15;;;;;;;3.08;90.70;99991.05;1715423;84;21148;-60
2020/12/17 03:51:34;;;;;;;23.60;12.80;;;;;;;3.06;90.55;99990.07;1715419;84;21153;-59
2020/12/17 03:54:02;;;;;;;20.37;12.37;;;;;;;3.03;90.46;99993.33;1715636;84;21279;-59
2020/12/17 03:56:29;;;;;;;23.18;12.58;;;;;;;2.99;90.51;99991.78;1715438;84;21145;-59
2020/12/17 03:58:57;;;;;;;20.40;11.73;;;;;;;2.99;90.66;99990.10;1715585;84;21153;-59
2020/12/17 04:01:25;;;;;;;23.85;11.97;;;;;;;2.99;90.69;99989.23;1715528;84;21164;-59
2020/12/17 04:03:53;;;;;;;21.33;12.50;;;;;;;3.02;90.64;99989.39;1719073;83;21281;-59
2020/12/17 04:06:21;;;;;;;24.50;12.98;;;;;;;3.05;90.68;99987.02;1726963;83;21653;-59
2020/12/17 04:08:51;;;;;;;25.05;12.82;;;;;;;3.10;90.62;99995.80;1725220;83;21376;-59
2020/12/17 04:11:18;;;;;;;23.30;11.48;;;;;;;3.09;90.37;99991.91;1726677;83;21180;-60
2020/12/17 04:13:46;;;;;;;22.37;12.53;;;;;;;3.10;90.53;100001.31;1727064;83;21152;-59
2020/12/17 04:16:14;;;;;;;22.22;11.90;;;;;;;3.12;90.54;99998.05;1726835;83;21254;-59
2020/12/17 04:18:41;;;;;;;23.38;12.30;;;;;;;3.14;90.44;99997.75;1727014;83;21135;-59
2020/12/17 04:21:09;;;;;;;25.15;11.45;;;;;;;3.12;90.43;99993.36;1726906;83;21278;-59
2020/12/17 04:23:37;;;;;;;21.17;11.93;;;;;;;3.11;90.40;99998.86;1726876;83;21152;-59
2020/12/17 04:26:05;;;;;;;24.45;12.00;;;;;;;3.15;90.57;100000.77;1726975;83;21278;-59
2020/12/17 04:28:33;;;;;;;19.50;10.78;;;;;;;3.16;90.32;100006.37;1727015;83;21164;-58
2020/12/17 04:31:00;;;;;;;23.47;12.07;;;;;;;3.17;90.33;100001.75;1727006;83;21262;-59
2020/12/17 04:33:28;;;;;;;20.97;11.88;;;;;;;3.15;90.36;99999.91;1726956;83;21108;-59
2020/12/17 04:35:55;;;;;;;20.82;11.90;;;;;;;3.16;90.46;100001.28;1727057;83;21109;-59
2020/12/17 04:38:23;;;;;;;20.15;11.57;;;;;;;3.19;90.46;99996.75;1726941;83;21140;-59
2020/12/17 04:40:51;;;;;;;22.98;12.20;;;;;;;3.20;90.48;99998.09;1726905;83;21282;-59
2020/12/17 04:43:19;;;;;;;21.85;12.33;;;;;;;3.24;90.35;99992.78;1726966;83;21176;-59
2020/12/17 04:45:47;;;;;;;25.95;12.43;;;;;;;3.24;90.21;100001.31;1726912;83;21262;-59
2020/12/17 04:48:17;;;;;;;21.50;13.08;;;;;;;3.30;90.31;99992.24;1727084;83;21160;-59
2020/12/17 04:50:46;;;;;;;23.52;12.07;;;;;;;3.32;90.17;99991.94;1727122;83;21265;-59
2020/12/17 04:53:15;;;;;;;25.95;12.18;;;;;;;3.35;90.00;99992.11;1727077;83;21168;-59
2020/12/17 04:55:45;;;;;;;23.18;12.45;;;;;;;3.32;89.83;99995.77;1727062;83;21152;-59
2020/12/17 04:58:14;;;;;;;22.00;12.10;;;;;;;3.32;89.75;99997.05;1727224;83;21282;-59
2020/12/17 05:00:42;;;;;;;20.62;12.58;;;;;;;3.33;89.77;99991.13;1699314;83;21139;-59
2020/12/17 05:03:13;;;;;;;25.85;13.58;;;;;;;3.38;89.67;99990.99;1727179;83;21132;-59
2020/12/17 05:05:41;;;;;;;26.30;13.00;;;;;;;3.39;89.50;99990.22;1715994;83;21124;-60
2020/12/17 05:08:10;;;;;;;26.07;14.07;;;;;;;3.37;89.40;99995.63;1715539;84;21148;-58
2020/12/17 05:10:38;;;;;;;24.77;13.15;;;;;;;3.35;89.44;100003.59;1715548;84;21352;-61
2020/12/17 05:13:05;;;;;;;21.87;12.58;;;;;;;3.35;89.50;99999.76;1715649;83;21165;-59
2020/12/17 05:15:33;;;;;;;25.08;13.00;;;;;;;3.34;89.38;99999.29;1715624;83;21267;-59
2020/12/17 05:18:00;;;;;;;24.23;13.62;;;;;;;3.36;89.33;99996.41;1715688;83;21283;-60
2020/12/17 05:20:28;;;;;;;24.72;13.30;;;;;;;3.41;89.41;99996.27;1715643;84;21290;-59
2020/12/17 05:22:57;;;;;;;23.07;13.53;;;;;;;3.42;89.24;100000.59;1715675;84;21277;-59
2020/12/17 05:25:26;;;;;;;27.95;15.03;;;;;;;3.44;89.24;100001.56;1715505;84;21326;-60
2020/12/17 05:27:55;;;;;;;28.83;15.70;;;;;;;3.46;89.09;100006.33;1715499;84;21148;-59
2020/12/17 05:30:35;;;;;;;30.72;16.35;;;;;;;3.43;88.87;100006.16;1691404;84;21148;-59
2020/12/17 05:33:04;;;;;;;31.02;15.85;;;;;;;3.42;89.09;100009.52;1715516;84;21132;-59
2020/12/17 05:35:36;;;;;;;28.90;16.10;;;;;;;3.43;89.00;100012.55;1715706;84;21145;-59
2020/12/17 05:38:08;;;;;;;29.92;16.07;;;;;;;3.41;88.84;100020.50;1715457;84;21278;-60
2020/12/17 05:40:38;;;;;;;33.13;16.02;;;;;;;3.42;89.11;100021.00;1715678;84;21278;-60
2020/12/17 05:43:07;;;;;;;26.25;15.83;;;;;;;3.46;88.83;100028.02;1715909;84;21149;-58
2020/12/17 05:45:36;;;;;;;29.72;16.90;;;;;;;3.45;89.00;100025.00;1715757;84;21176;-59
2020/12/17 05:48:13;;;;;;;30.60;17.73;;;;;;;3.48;88.95;100021.34;1715525;84;21176;-59
2020/12/17 05:50:56;;;;;;;32.42;18.65;;;;;;;3.53;88.82;100030.53;1715532;84;21149;-59
2020/12/17 05:53:27;;;;;;;33.67;18.80;;;;;;;3.53;88.59;100025.02;1715731;84;21286;-60
2020/12/17 05:56:04;;;;;;;34.00;19.98;;;;;;;3.51;88.59;100033.02;1715897;84;21160;-59
2020/12/17 05:58:41;;;;;;;38.70;21.42;;;;;;;3.53;88.47;100032.68;1715567;84;21137;-60
2020/12/17 06:01:17;;;;;;;31.70;16.93;;;;;;;3.57;88.46;100042.28;1715688;84;21181;-60
2020/12/17 06:03:45;;;;;;;39.38;20.05;;;;;;;3.58;87.95;100046.98;1715654;84;21153;-68
2020/12/17 06:06:13;;;;;;;36.75;20.37;;;;;;;3.57;87.90;100049.06;1715722;84;21689;-69
2020/12/17 06:08:42;;;;;;;35.50;21.02;;;;;;;3.53;87.91;100045.44;1715531;84;21132;-71
2020/12/17 06:11:17;;;;;;;37.30;19.60;;;;;;;3.48;87.90;100048.13;1715711;84;21299;-71
2020/12/17 06:13:43;;;;;;;34.85;19.05;;;;;;;3.47;88.06;100048.94;1715040;84;21145;-71
2020/12/17 06:16:11;;;;;;;34.00;19.02;;;;;;;3.46;88.06;100045.88;1715479;84;21141;-71
2020/12/17 06:19:00;;;;;;;34.78;19.73;;;;;;;3.44;88.02;100044.54;1715653;84;21582;-71
2020/12/17 06:21:28;;;;;;;33.65;18.42;;;;;;;3.46;88.06;100043.33;1714763;84;21331;-71
2020/12/17 06:23:58;;;;;;;34.05;19.25;;;;;;;3.46;87.81;100052.27;1715154;84;21148;-71
2020/12/17 06:26:27;;;;;;;44.65;26.25;;;;;;;3.43;88.14;100049.55;1714785;84;21140;-71
2020/12/17 06:28:56;;;;;;;47.35;26.70;;;;;;;3.46;88.22;100046.78;1715803;84;21152;-71
2020/12/17 06:31:27;;;;;;;42.45;24.67;;;;;;;3.48;88.05;100053.23;1715323;84;21535;-72
2020/12/17 06:34:06;;;;;;;38.90;21.73;;;;;;;3.49;88.20;100052.46;1715672;84;21164;-71
2020/12/17 06:36:44;;;;;;;48.75;28.32;;;;;;;3.53;87.93;100051.82;1715779;84;21113;-71
2020/12/17 06:39:12;;;;;;;46.75;27.10;;;;;;;3.58;87.99;100054.23;1715631;84;21563;-71
2020/12/17 06:41:40;;;;;;;61.58;37.50;;;;;;;3.67;87.81;100059.87;1715449;84;21144;-72
2020/12/17 06:44:28;;;;;;;70.08;40.98;;;;;;;3.69;87.56;100059.56;1715620;84;21259;-72
2020/12/17 06:47:01;;;;;;;62.75;36.50;;;;;;;3.70;87.60;100060.03;1715473;84;21137;-71
2020/12/17 06:49:31;;;;;;;60.70;37.00;;;;;;;3.75;87.69;100064.13;1715785;84;21559;-71
2020/12/17 06:52:09;;;;;;;52.13;29.72;;;;;;;3.80;87.62;100066.94;1715631;84;21177;-72
2020/12/17 06:54:41;;;;;;;47.00;25.62;;;;;;;3.79;87.42;100063.88;1715720;84;21140;-72
2020/12/17 06:57:16;;;;;;;;;;;;;;;3.82;87.41;100065.36;1718005;84;21133;-72
2020/12/17 06:59:52;;;;;;;55.58;30.43;;;;;;;3.86;87.09;100073.65;1715478;84;20411;-71
2020/12/17 07:02:22;;;;;;;48.52;25.77;;;;;;;3.86;87.09;100074.92;1710490;84;21286;-71
2020/12/17 07:04:50;;;;;;;49.77;26.07;;;;;;;3.90;87.15;100080.70;1716101;82;21701;-72
2020/12/17 07:07:22;;;;;;;44.23;26.42;;;;;;;3.87;86.80;100088.19;1726965;83;21159;-72
2020/12/17 07:09:54;;;;;;;43.73;24.57;;;;;;;3.87;86.78;100090.75;1727047;83;21144;-72
2020/12/17 07:12:39;;;;;;;44.98;26.52;;;;;;;3.83;86.60;100093.91;1726495;83;21104;-72
2020/12/17 07:15:36;;;;;;;45.05;25.92;;;;;;;3.65;86.82;100097.19;1726889;83;21281;-72
2020/12/17 07:18:22;;;;;;;43.90;25.10;;;;;;;3.63;87.24;100101.31;1726711;83;21578;-72
2020/12/17 07:20:55;;;;;;;42.80;23.98;;;;;;;3.68;87.36;100096.48;1727010;83;21523;-72
2020/12/17 07:23:23;;;;;;;45.65;26.57;;;;;;;3.73;87.42;100095.47;1725272;81;21559;-73
2020/12/17 07:25:52;;;;;;;43.87;23.25;;;;;;;3.73;87.22;100099.30;1726869;83;21140;-72
2020/12/17 07:28:25;;;;;;;44.95;23.25;;;;;;;3.76;87.22;100100.33;1727064;83;21128;-72
2020/12/17 07:30:55;;;;;;;44.73;24.25;;;;;;;3.78;87.11;100110.64;1726922;83;21156;-72
2020/12/17 07:33:42;;;;;;;42.53;23.47;;;;;;;3.79;87.21;100108.19;1726805;83;21160;-72
2020/12/17 07:36:11;;;;;;;42.45;24.30;;;;;;;3.75;86.98;100107.93;1726967;83;21555;-71
2020/12/17 07:38:40;;;;;;;43.55;25.25;;;;;;;3.69;87.15;100108.47;1726773;83;21152;-71
2020/12/17 07:41:27;;;;;;;47.60;25.95;;;;;;;3.73;87.44;100109.51;1727115;83;21164;-71
2020/12/17 07:43:55;;;;;;;44.67;25.55;;;;;;;3.77;87.04;100112.73;1726914;83;21156;-70
2020/12/17 07:46:41;;;;;;;50.35;27.45;;;;;;;3.66;87.11;100115.55;1726748;83;21563;-71
2020/12/17 07:49:28;;;;;;;45.52;23.45;;;;;;;3.68;87.23;100112.66;1727178;83;21583;-71
2020/12/17 07:51:55;;;;;;;40.67;23.30;;;;;;;3.62;86.62;100113.61;1727007;83;21156;-70
2020/12/17 07:54:23;;;;;;;41.20;22.37;;;;;;;3.55;86.97;100119.55;1726785;83;21274;-70
2020/12/17 07:57:00;;;;;;;44.38;24.77;;;;;;;3.55;86.96;100113.17;1727051;83;21704;-71
2020/12/17 07:59:28;;;;;;;42.55;24.05;;;;;;;3.62;87.10;100117.44;1726972;83;21547;-71
2020/12/17 08:02:03;;;;;;;53.15;28.80;;;;;;;3.74;87.22;100111.25;1726637;83;21274;-71
2020/12/17 08:04:30;;;;;;;57.90;32.20;;;;;;;3.79;87.21;100109.84;1726239;83;21113;-72
2020/12/17 08:07:01;;;;;;;53.17;31.33;;;;;;;3.87;87.06;100113.73;1715492;84;21145;-71
2020/12/17 08:09:29;;;;;;;63.65;35.25;;;;;;;3.93;86.89;100114.05;1714909;84;21375;-71
2020/12/17 08:11:57;;;;;;;54.18;32.42;;;;;;;3.95;86.80;100112.48;1715698;84;21133;-71
2020/12/17 08:14:25;;;;;;;42.55;24.70;;;;;;;3.87;86.82;100115.00;1715644;84;21109;-71
2020/12/17 08:17:05;;;;;;;45.88;26.52;;;;;;;3.87;86.74;100113.73;1715594;84;21152;-71
2020/12/17 08:19:34;;;;;;;53.98;30.80;;;;;;;3.91;86.52;100115.64;1715381;84;21165;-73
2020/12/17 08:22:03;;;;;;;57.98;33.80;;;;;;;3.95;86.40;100115.03;1715547;84;21215;-73
2020/12/17 08:24:32;;;;;;;50.12;31.25;;;;;;;3.99;86.52;100122.05;1715462;84;21176;-73
2020/12/17 08:27:01;;;;;;;50.52;28.23;;;;;;;4.02;86.22;100122.61;1715580;84;21144;-72
2020/12/17 08:29:30;;;;;;;51.48;27.60;;;;;;;4.03;86.28;100125.27;1715463;83;21702;-73
2020/12/17 08:31:58;;;;;;;50.10;28.50;;;;;;;4.08;85.98;100125.13;1715760;84;21621;-70
2020/12/17 08:34:26;;;;;;;43.10;24.70;;;;;;;4.11;85.62;100123.14;1715432;84;21129;-71
2020/12/17 08:36:54;;;;;;;42.33;22.50;;;;;;;4.06;85.21;100122.00;1715417;84;21101;-70
2020/12/17 08:39:21;;;;;;;40.43;22.40;;;;;;;3.95;85.07;100126.92;1715377;84;21224;-72
2020/12/17 08:41:56;;;;;;;43.13;24.18;;;;;;;3.91;85.42;100128.00;1715352;84;21181;-71
2020/12/17 08:44:30;;;;;;;44.13;22.40;;;;;;;3.98;85.58;100117.75;1715582;83;21555;-71
2020/12/17 08:47:02;;;;;;;36.50;19.35;;;;;;;4.04;85.31;100128.30;1715747;84;21144;-71
2020/12/17 08:49:31;;;;;;;36.50;19.82;;;;;;;3.99;84.71;100129.71;1715120;84;21097;-72
2020/12/17 08:51:59;;;;;;;44.05;26.23;;;;;;;3.89;84.67;100129.98;1691602;84;21175;-72
2020/12/17 08:54:34;;;;;;;42.65;23.40;;;;;;;3.85;84.81;100135.73;1715613;84;21550;-72
2020/12/17 08:57:09;;;;;;;43.08;22.98;;;;;;;3.85;85.00;100123.84;1715517;84;21294;-72
2020/12/17 08:59:37;;;;;;;43.68;23.67;;;;;;;3.86;84.92;100126.86;1715508;84;21146;-72
2020/12/17 09:02:05;;;;;;;39.23;22.52;;;;;;;3.85;85.31;100126.80;1715412;84;21152;-72
2020/12/17 09:04:34;;;;;;;40.33;22.62;;;;;;;3.93;85.11;100134.48;1715365;84;21144;-73
2020/12/17 09:07:03;;;;;;;47.62;25.05;;;;;;;4.02;85.00;100140.49;1726483;83;21282;-74
2020/12/17 09:09:38;;;;;;;42.13;23.57;;;;;;;4.12;85.00;100139.84;1727074;83;21141;-73
2020/12/17 09:12:08;;;;;;;42.73;25.05;;;;;;;4.14;84.76;100135.67;1726842;83;21156;-72
2020/12/17 09:14:38;;;;;;;41.98;24.90;;;;;;;4.17;84.77;100144.30;1727002;83;21128;-72
2020/12/17 09:17:16;;;;;;;39.70;22.95;;;;;;;4.22;84.72;100145.44;1726842;83;21164;-72
2020/12/17 09:19:46;;;;;;;38.28;21.25;;;;;;;4.21;84.48;100136.02;1727020;83;21136;-73
2020/12/17 09:22:20;;;;;;;41.53;21.95;;;;;;;4.18;84.08;100138.42;1727002;83;21144;-72
2020/12/17 09:24:54;;;;;;;38.33;21.23;;;;;;;4.10;83.83;100137.59;1727121;83;21547;-72
2020/12/17 09:30:16;;;;;;;39.67;22.75;;;;;;;3.98;83.75;100134.75;1742709;82;21185;-71
2020/12/17 09:32:56;;;;;;;35.60;19.40;;;;;;;3.98;83.72;100133.07;1743187;82;21171;-72
2020/12/17 09:35:30;;;;;;;41.13;21.48;;;;;;;3.99;83.48;100142.48;1743221;82;21299;-72
2020/12/17 09:38:05;;;;;;;44.80;22.62;;;;;;;4.01;83.51;100141.30;1743073;82;21256;-72
2020/12/17 09:40:45;;;;;;;40.80;22.30;;;;;;;3.98;83.33;100135.63;1743106;82;21616;-72
2020/12/17 09:43:15;;;;;;;41.73;23.57;;;;;;;3.94;83.47;100135.36;1742147;82;21616;-72
2020/12/17 09:45:50;;;;;;;43.63;24.72;;;;;;;3.92;83.53;100135.30;1743218;82;21529;-72
2020/12/17 09:48:29;;;;;;;46.55;24.47;;;;;;;3.88;83.62;100130.80;1743011;82;21161;-71
2020/12/17 09:51:07;;;;;;;41.05;22.87;;;;;;;3.77;83.77;100131.87;1743242;82;21579;-72
2020/12/17 09:53:40;;;;;;;40.45;22.42;;;;;;;3.71;83.84;100131.11;1743018;82;21189;-72
2020/12/17 09:56:15;;;;;;;38.85;23.47;;;;;;;3.63;84.11;100125.97;1743062;82;21302;-72
2020/12/17 09:58:45;;;;;;;39.23;22.40;;;;;;;3.61;84.60;100128.45;1743064;82;21343;-72
2020/12/17 10:01:14;;;;;;;41.05;23.85;;;;;;;3.72;84.55;100129.06;1742951;82;21219;-72
2020/12/17 10:03:42;;;;;;;49.30;27.07;;;;;;;3.83;84.69;100124.55;1743159;82;21295;-72
2020/12/17 10:06:10;;;;;;;43.95;24.20;;;;;;;3.95;84.64;100130.75;1743004;82;21559;-72
2020/12/17 10:08:38;;;;;;;40.23;23.45;;;;;;;4.03;84.25;100125.27;1742962;82;21161;-71
2020/12/17 10:11:09;;;;;;;44.23;26.48;;;;;;;4.11;84.17;100120.17;1742916;82;21173;-72
2020/12/17 10:13:37;;;;;;;46.53;25.00;;;;;;;4.24;84.02;100117.90;1743042;82;21312;-72
2020/12/17 10:16:04;;;;;;;50.20;26.73;;;;;;;4.37;83.81;100119.44;1743122;82;21323;-72
2020/12/17 10:18:32;;;;;;;45.60;25.35;;;;;;;4.48;83.50;100123.48;1743181;82;21223;-71
2020/12/17 10:21:00;;;;;;;43.20;23.38;;;;;;;4.55;83.29;100125.57;1742958;82;21176;-72
2020/12/17 10:23:28;;;;;;;42.40;23.77;;;;;;;4.62;82.97;100119.09;1743277;82;21129;-72
2020/12/17 10:25:55;;;;;;;43.33;23.62;;;;;;;4.65;82.75;100122.20;1743046;82;21144;-71
2020/12/17 10:28:23;;;;;;;44.70;24.40;;;;;;;4.67;82.67;100116.38;1742083;81;21307;-72
2020/12/17 10:30:51;;;;;;;40.90;22.60;;;;;;;4.72;82.39;100110.23;1737453;82;21790;-72
2020/12/17 10:33:18;;;;;;;38.55;21.68;;;;;;;4.75;82.03;100116.78;1737855;82;21564;-72
2020/12/17 10:35:46;;;;;;;44.53;23.32;;;;;;;4.82;81.93;100116.30;1737685;82;21702;-72
2020/12/17 10:38:14;;;;;;;39.90;21.70;;;;;;;4.90;81.82;100107.75;1737471;82;21150;-72
2020/12/17 10:40:42;;;;;;;39.25;22.00;;;;;;;4.96;81.37;100111.89;1737468;82;21295;-71
2020/12/17 10:43:10;;;;;;;40.05;21.25;;;;;;;4.94;81.11;100110.55;1737516;82;21560;-72
2020/12/17 10:45:37;;;;;;;41.40;22.90;;;;;;;4.88;81.14;100121.73;1737569;82;21173;-73
2020/12/17 10:48:05;;;;;;;43.73;23.87;;;;;;;4.86;80.84;100117.33;1737647;82;21158;-71
2020/12/17 10:50:33;;;;;;;44.73;24.10;;;;;;;4.86;80.88;100122.08;1737631;82;21165;-70
2020/12/17 10:53:00;;;;;;;46.95;24.25;;;;;;;4.88;80.83;100124.28;1737441;82;21307;-71
2020/12/17 10:55:28;;;;;;;46.20;25.30;;;;;;;4.81;80.58;100124.80;1737543;82;21157;-71
2020/12/17 10:57:55;;;;;;;46.63;24.67;;;;;;;4.72;80.81;100126.85;1737405;82;21205;-72
2020/12/17 11:00:23;;;;;;;44.35;24.92;;;;;;;4.74;81.00;100128.69;1737427;82;21319;-71
2020/12/17 11:02:51;;;;;;;43.17;24.77;;;;;;;4.82;80.92;100127.81;1737635;82;21687;-71
2020/12/17 11:05:18;;;;;;;41.68;23.67;;;;;;;4.87;80.84;100127.66;1737567;82;21193;-72
2020/12/17 11:07:46;;;;;;;44.50;23.95;;;;;;;4.89;80.43;100127.34;1737619;82;21177;-71
2020/12/17 11:10:14;;;;;;;42.53;25.45;;;;;;;4.83;81.05;100129.97;1737671;82;21585;-72
2020/12/17 11:12:43;;;;;;;42.30;24.80;;;;;;;4.83;81.41;100124.45;1737466;82;21320;-72
2020/12/17 11:15:13;;;;;;;37.63;22.48;;;;;;;4.78;80.93;100134.83;1737665;82;21150;-71
2020/12/17 11:17:41;;;;;;;37.33;20.27;;;;;;;4.61;81.00;100130.12;1737455;82;21694;-72
2020/12/17 11:20:09;;;;;;;38.10;20.52;;;;;;;4.35;80.98;100133.44;1737302;82;21200;-71
2020/12/17 11:22:36;;;;;;;37.55;20.32;;;;;;;4.16;81.30;100131.06;1737639;82;21158;-71
2020/12/17 11:25:04;;;;;;;37.58;20.02;;;;;;;4.01;81.99;100127.25;1737654;82;21287;-72
2020/12/17 11:27:32;;;;;;;36.80;20.40;;;;;;;4.00;82.15;100138.28;1737649;82;21687;-71
2020/12/17 11:29:59;;;;;;;38.53;20.97;;;;;;;3.98;82.57;100129.23;1720193;82;21722;-71
2020/12/17 11:32:27;;;;;;;40.38;21.50;;;;;;;4.06;82.67;100136.05;1713306;84;21691;-71
2020/12/17 11:34:54;;;;;;;38.13;21.10;;;;;;;4.12;82.89;100134.73;1713086;84;21168;-71
2020/12/17 11:37:22;;;;;;;36.77;20.00;;;;;;;4.22;82.86;100135.22;1713277;84;21174;-71